Mead, West Virginia
Current Conditions -  °F | °C
As of 7:10 AM on Monday 26 Jan 2015 (Local Time) from KBKW Reporting Station
Overcast Overcast  
Wind Chill: 33°   Ceiling: 2500
Heat Index: 37°   Visibility: 10mi
Dew Point: 31°   Wind: 5mph
Humidity: 79%   Direction: 150°SSE
Pressure: 29.6"   Gusts: NA
Location:  37.6245°N, 81.2855°W
Report Text: KBKW 261210Z AUTO 15004KT 10SM BKN025 OVC060 03/M01 A2960 RMK AO2 T00281006
Loading
Personal Weather Stations






























Interactive Weather Map New forecast layout! Learn more

10-Day Weather Forecast

Advertisements
Track Severe Weather on mobile